createdAt,value
2023-03-12T00:03:02.625Z,99835.59
2023-03-12T00:06:10.434Z,99830.44
2023-03-12T00:09:16.493Z,99838.25
2023-03-12T00:12:19.453Z,99850.22
2023-03-12T00:15:22.129Z,99857.00
2023-03-12T00:18:28.523Z,99850.97
2023-03-12T00:21:31.075Z,99852.84
2023-03-12T00:24:33.967Z,99864.03
2023-03-12T00:27:36.749Z,99870.87
2023-03-12T00:30:40.698Z,99882.00
2023-03-12T00:33:43.369Z,99877.06
2023-03-12T00:36:46.369Z,99883.84
2023-03-12T00:39:49.119Z,99880.47
2023-03-12T00:42:51.991Z,99895.91
2023-03-12T00:45:54.588Z,99901.81
2023-03-12T00:48:57.551Z,99907.63
2023-03-12T00:52:00.215Z,99912.03
2023-03-12T00:55:03.297Z,99920.66
2023-03-12T00:58:05.978Z,99914.72
2023-03-12T01:01:09.768Z,99913.75
2023-03-12T01:04:12.997Z,99912.94
2023-03-12T01:07:15.818Z,99925.69
2023-03-12T01:10:20.487Z,99921.44
2023-03-12T01:13:23.466Z,99928.12
2023-03-12T01:16:30.079Z,99925.56
2023-03-12T01:19:32.961Z,99937.63
2023-03-12T01:22:36.149Z,99931.72
2023-03-12T01:25:40.436Z,99938.41
2023-03-12T01:28:43.124Z,99934.16
2023-03-12T01:31:46.002Z,99935.91
2023-03-12T01:34:48.858Z,99936.72
2023-03-12T01:37:53.078Z,99933.25
2023-03-12T01:40:55.748Z,99922.16
2023-03-12T01:44:01.493Z,99925.50
2023-03-12T01:47:04.313Z,99927.41
2023-03-12T01:50:08.225Z,99941.03
2023-03-12T01:53:12.594Z,99948.78
2023-03-12T01:56:18.819Z,99949.72
2023-03-12T01:59:36.640Z,99957.38
2023-03-12T02:02:41.494Z,99952.22
2023-03-12T02:05:53.564Z,99964.28
2023-03-12T02:08:59.752Z,99957.53
2023-03-12T02:12:03.336Z,99963.50
2023-03-12T02:15:06.938Z,99976.34
2023-03-12T02:18:15.102Z,99978.16
2023-03-12T02:21:27.524Z,99979.06
2023-03-12T02:24:45.399Z,99986.81
2023-03-12T02:27:49.117Z,99985.97
2023-03-12T02:30:56.038Z,99992.06
2023-03-12T02:34:00.574Z,99992.09
2023-03-12T02:37:03.605Z,100006.59
2023-03-12T02:40:15.578Z,100006.59
2023-03-12T02:43:21.633Z,100019.34
2023-03-12T02:46:24.699Z,100024.28
2023-03-12T02:49:30.760Z,100028.56
2023-03-12T02:52:36.981Z,100033.69
2023-03-12T02:55:39.924Z,100029.47
2023-03-12T02:58:43.076Z,100034.50
2023-03-12T03:01:46.688Z,100036.19
2023-03-12T03:04:49.319Z,100033.66
2023-03-12T03:07:52.433Z,100039.56
2023-03-12T03:10:55.367Z,100058.25
2023-03-12T03:13:58.512Z,100061.69
2023-03-12T03:17:01.183Z,100059.16
2023-03-12T03:20:11.042Z,100061.78
2023-03-12T03:23:13.780Z,100061.78
2023-03-12T03:26:20.858Z,100062.66
2023-03-12T03:29:24.874Z,100064.34
2023-03-12T03:32:31.010Z,100066.06
2023-03-12T03:35:36.474Z,100077.03
2023-03-12T03:38:39.601Z,100088.09
2023-03-12T03:41:42.359Z,100090.59
2023-03-12T03:44:45.227Z,100092.28
2023-03-12T03:47:48.106Z,100097.44
2023-03-12T03:50:51.835Z,100095.72
2023-03-12T03:53:54.902Z,100091.47
2023-03-12T03:56:57.718Z,100091.47
2023-03-12T04:00:03.514Z,100089.00
2023-03-12T04:03:16.429Z,100087.28
2023-03-12T04:06:19.787Z,100111.09
2023-03-12T04:09:22.759Z,100108.56
2023-03-12T04:12:26.272Z,100097.50
2023-03-12T04:15:29.427Z,100096.66
2023-03-12T04:18:32.788Z,100125.56
2023-03-12T04:21:36.048Z,100130.66
2023-03-12T04:24:39.081Z,100140.00
2023-03-12T04:27:41.999Z,100146.78
2023-03-12T04:30:45.557Z,100149.31
2023-03-12T04:33:48.088Z,100165.47
2023-03-12T04:36:51.302Z,100170.56
2023-03-12T04:39:54.010Z,100176.50
2023-03-12T04:42:56.895Z,100179.03
2023-03-12T04:46:00.213Z,100187.50
2023-03-12T04:49:04.833Z,100191.75
2023-03-12T04:52:07.729Z,100186.66
2023-03-12T04:55:10.820Z,100190.88
2023-03-12T04:58:13.697Z,100201.94
2023-03-12T05:01:25.297Z,100205.31
2023-03-12T05:04:28.213Z,100215.53
2023-03-12T05:07:31.330Z,100218.91
2023-03-12T05:10:34.964Z,100218.94
2023-03-12T05:13:38.106Z,100218.91
2023-03-12T05:16:40.924Z,100213.84
2023-03-12T05:19:43.942Z,100216.37
2023-03-12T05:22:47.237Z,100217.22
2023-03-12T05:25:50.782Z,100218.09
2023-03-12T05:28:53.741Z,100224.88
2023-03-12T05:31:57.046Z,100235.94
2023-03-12T05:35:00.062Z,100246.12
2023-03-12T05:38:03.314Z,100242.72
2023-03-12T05:41:06.842Z,100247.81
2023-03-12T05:44:13.693Z,100244.44
2023-03-12T05:47:16.993Z,100251.22
2023-03-12T05:50:20.157Z,100252.91
2023-03-12T05:53:23.570Z,100259.69
2023-03-12T05:56:26.931Z,100260.56
2023-03-12T05:59:30.114Z,100265.66
2023-03-12T06:02:33.629Z,100274.97
2023-03-12T06:05:37.717Z,100283.47
2023-03-12T06:08:41.688Z,100287.69
2023-03-12T06:11:45.022Z,100298.69
2023-03-12T06:14:47.824Z,100306.28
2023-03-12T06:17:51.076Z,100316.47
2023-03-12T06:20:53.675Z,100314.69
2023-03-12T06:23:58.625Z,100316.28
2023-03-12T06:27:02.001Z,100326.38
2023-03-12T06:30:11.528Z,100326.34
2023-03-12T06:33:15.507Z,100328.91
2023-03-12T06:36:18.429Z,100333.09
2023-03-12T06:39:21.368Z,100341.63
2023-03-12T06:42:26.534Z,100344.03
2023-03-12T06:45:29.150Z,100348.31
2023-03-12T06:48:36.930Z,100358.50
2023-03-12T06:51:39.656Z,100360.13
2023-03-12T06:54:42.472Z,100362.66
2023-03-12T06:57:44.992Z,100363.50
2023-03-12T07:00:47.861Z,100365.19
2023-03-12T07:03:50.791Z,100365.25
2023-03-12T07:06:53.820Z,100371.97
2023-03-12T07:09:56.403Z,100376.22
2023-03-12T07:13:01.674Z,100379.50
2023-03-12T07:16:05.190Z,100387.06
2023-03-12T07:19:08.019Z,100386.84
2023-03-12T07:22:10.717Z,100392.78
2023-03-12T07:25:13.703Z,100396.06
2023-03-12T07:28:17.405Z,100397.78
2023-03-12T07:31:20.326Z,100399.37
2023-03-12T07:34:23.131Z,100402.81
2023-03-12T07:37:26.158Z,100411.19
2023-03-12T07:40:29.299Z,100409.84
2023-03-12T07:43:33.093Z,100419.16
2023-03-12T07:46:35.904Z,100416.50
2023-03-12T07:49:41.764Z,100429.09
2023-03-12T07:52:45.271Z,100426.41
2023-03-12T07:55:48.536Z,100420.44
2023-03-12T07:58:51.598Z,100422.06
2023-03-12T08:01:54.697Z,100426.13
2023-03-12T08:04:57.761Z,100426.78
2023-03-12T08:08:00.371Z,100430.25
2023-03-12T08:11:05.266Z,100422.31
2023-03-12T08:14:08.213Z,100424.81
2023-03-12T08:17:11.685Z,100431.56
2023-03-12T08:20:14.613Z,100434.75
2023-03-12T08:23:18.299Z,100435.62
2023-03-12T08:26:20.817Z,100444.34
2023-03-12T08:29:23.870Z,100436.47
2023-03-12T08:32:26.975Z,100442.44
2023-03-12T08:35:30.061Z,100442.44
2023-03-12T08:38:32.628Z,100452.62
2023-03-12T08:41:35.567Z,100451.47
2023-03-12T08:44:38.107Z,100453.09
2023-03-12T08:47:41.907Z,100446.09
2023-03-12T08:50:44.664Z,100443.44
2023-03-12T08:53:47.909Z,100441.94
2023-03-12T08:56:53.504Z,100450.66
2023-03-12T08:59:56.710Z,100441.91
2023-03-12T09:02:59.431Z,100441.53
2023-03-12T09:06:06.440Z,100447.00
2023-03-12T09:09:09.160Z,100441.44
2023-03-12T09:12:12.145Z,100442.66
2023-03-12T09:15:15.665Z,100432.09
2023-03-12T09:18:20.347Z,100433.59
2023-03-12T09:21:23.002Z,100435.78
2023-03-12T09:24:26.276Z,100433.50
2023-03-12T09:27:28.925Z,100434.06
2023-03-12T09:30:32.169Z,100431.41
2023-03-12T09:33:35.929Z,100433.41
2023-03-12T09:36:39.173Z,100432.25
2023-03-12T09:39:41.793Z,100421.09
2023-03-12T09:43:03.099Z,100425.06
2023-03-12T09:46:13.781Z,100429.12
2023-03-12T09:49:24.419Z,100426.25
2023-03-12T09:52:40.244Z,100425.59
2023-03-12T09:55:47.797Z,100424.31
2023-03-12T09:58:54.578Z,100415.94
2023-03-12T10:02:02.984Z,100424.22
2023-03-12T10:05:23.882Z,100426.94
2023-03-12T10:08:38.592Z,100418.88
2023-03-12T10:12:03.045Z,100417.69
2023-03-12T10:15:18.155Z,100422.50
2023-03-12T10:18:48.839Z,100413.50
2023-03-12T10:22:45.973Z,100427.63
2023-03-12T10:25:59.444Z,100427.47
2023-03-12T10:29:06.567Z,100431.62
2023-03-12T10:32:33.269Z,100425.22
2023-03-12T10:35:36.678Z,100425.00
2023-03-12T10:38:39.672Z,100431.31
2023-03-12T10:41:44.878Z,100435.56
2023-03-12T10:44:52.394Z,100436.97
2023-03-12T10:48:03.143Z,100427.97
2023-03-12T10:51:13.386Z,100422.66
2023-03-12T10:54:28.594Z,100428.75
2023-03-12T10:57:42.062Z,100430.63
2023-03-12T11:00:56.850Z,100441.56
2023-03-12T11:04:30.792Z,100439.88
2023-03-12T11:07:35.456Z,100439.53
2023-03-12T11:10:46.983Z,100435.03
2023-03-12T11:14:07.532Z,100433.19
2023-03-12T11:17:21.869Z,100441.00
2023-03-12T11:20:29.867Z,100433.16
2023-03-12T11:23:33.664Z,100433.13
2023-03-12T11:26:49.350Z,100433.28
2023-03-12T11:29:54.456Z,100428.31
2023-03-12T11:32:58.157Z,100434.19
2023-03-12T11:36:28.216Z,100437.13
2023-03-12T11:39:50.854Z,100430.53
2023-03-12T11:42:53.824Z,100432.09
2023-03-12T11:46:27.121Z,100424.44
2023-03-12T11:49:49.859Z,100436.03
2023-03-12T11:53:17.388Z,100438.25
2023-03-12T11:56:30.305Z,100428.09
2023-03-12T11:59:56.891Z,100428.91
2023-03-12T12:03:54.428Z,100427.13
2023-03-12T12:07:15.115Z,100425.91
2023-03-12T12:10:39.540Z,100430.84
2023-03-12T12:14:27.165Z,100422.88
2023-03-12T12:17:38.757Z,100427.81
2023-03-12T12:21:09.937Z,100406.19
2023-03-12T12:24:33.962Z,100413.25
2023-03-12T12:27:52.173Z,100412.59
2023-03-12T12:31:35.124Z,100411.94
2023-03-12T12:35:14.895Z,100404.47
2023-03-12T12:38:42.088Z,100408.47
2023-03-12T12:41:54.782Z,100397.81
2023-03-12T12:45:01.191Z,100408.50
2023-03-12T12:48:15.324Z,100414.78
2023-03-12T12:51:21.141Z,100406.22
2023-03-12T12:54:35.068Z,100407.13
2023-03-12T12:58:19.279Z,100410.84
2023-03-12T13:01:22.808Z,100410.22
2023-03-12T13:04:30.936Z,100411.47
2023-03-12T13:07:34.646Z,100408.28
2023-03-12T13:10:53.142Z,100408.50
2023-03-12T13:14:03.956Z,100402.25
2023-03-12T13:17:19.762Z,100407.41
2023-03-12T13:20:32.786Z,100406.22
2023-03-12T13:23:53.781Z,100410.09
2023-03-12T13:27:12.370Z,100399.72
2023-03-12T13:30:33.820Z,100397.09
2023-03-12T13:33:46.254Z,100407.13
2023-03-12T13:36:52.355Z,100404.84
2023-03-12T13:39:55.290Z,100413.50
2023-03-12T13:43:10.114Z,100409.25
2023-03-12T13:46:16.471Z,100414.56
2023-03-12T13:49:20.411Z,100414.81
2023-03-12T13:52:34.062Z,100416.87
2023-03-12T13:55:39.343Z,100417.22
2023-03-12T13:58:47.409Z,100406.97
2023-03-12T14:01:54.251Z,100413.50
2023-03-12T14:05:10.654Z,100419.56
2023-03-12T14:08:49.892Z,100416.50
2023-03-12T14:12:09.021Z,100415.19
2023-03-12T14:15:39.854Z,100410.41
2023-03-12T14:18:46.044Z,100417.78
2023-03-12T14:21:50.813Z,100419.09
2023-03-12T14:24:58.691Z,100429.06
2023-03-12T14:28:03.280Z,100425.59
2023-03-12T14:31:21.836Z,100420.97
2023-03-12T14:34:25.726Z,100428.16
2023-03-12T14:37:32.121Z,100427.03
2023-03-12T14:40:46.126Z,100425.44
2023-03-12T14:43:53.010Z,100419.06
2023-03-12T14:47:04.536Z,100414.28
2023-03-12T14:50:16.442Z,100421.75
2023-03-12T14:53:26.352Z,100420.09
2023-03-12T14:56:35.282Z,100423.09
2023-03-12T14:59:39.189Z,100408.78
2023-03-12T15:02:43.475Z,100416.56
2023-03-12T15:05:47.897Z,100417.50
2023-03-12T15:08:50.991Z,100415.06
2023-03-12T15:12:06.132Z,100420.41
2023-03-12T15:15:31.738Z,100417.00
2023-03-12T15:18:34.777Z,100413.78
2023-03-12T15:21:38.004Z,100418.25
2023-03-12T15:24:40.881Z,100423.25
2023-03-12T15:27:43.724Z,100421.56
2023-03-12T15:30:46.380Z,100425.00
2023-03-12T15:34:05.087Z,100431.84
2023-03-12T15:37:22.744Z,100427.53
2023-03-12T15:40:27.678Z,100439.28
2023-03-12T15:43:31.339Z,100435.94
2023-03-12T15:46:34.468Z,100435.50
2023-03-12T15:49:38.654Z,100431.91
2023-03-12T15:52:57.467Z,100442.31
2023-03-12T15:56:10.778Z,100439.06
2023-03-12T15:59:16.731Z,100440.47
2023-03-12T16:02:36.374Z,100449.44
2023-03-12T16:05:39.959Z,100453.91
2023-03-12T16:08:55.484Z,100456.00
2023-03-12T16:11:58.453Z,100457.03
2023-03-12T16:15:01.096Z,100461.31
2023-03-12T16:18:04.720Z,100451.81
2023-03-12T16:21:08.103Z,100463.78
2023-03-12T16:24:11.750Z,100465.16
2023-03-12T16:27:23.722Z,100471.06
2023-03-12T16:30:36.947Z,100463.91
2023-03-12T16:33:39.985Z,100476.34
2023-03-12T16:36:42.921Z,100473.66
2023-03-12T16:39:46.445Z,100478.38
2023-03-12T16:42:54.477Z,100486.53
2023-03-12T16:45:57.928Z,100486.06
2023-03-12T16:49:01.682Z,100483.78
2023-03-12T16:52:21.949Z,100492.72
2023-03-12T16:55:30.393Z,100497.25
2023-03-12T16:58:33.241Z,100491.44
2023-03-12T17:01:36.651Z,100497.00
2023-03-12T17:04:39.257Z,100509.81
2023-03-12T17:07:42.096Z,100508.03
2023-03-12T17:10:45.594Z,100506.72
2023-03-12T17:13:55.404Z,100518.75
2023-03-12T17:16:58.398Z,100516.41
2023-03-12T17:20:02.165Z,100521.31
2023-03-12T17:23:05.892Z,100519.00
2023-03-12T17:26:09.369Z,100526.84
2023-03-12T17:29:12.380Z,100509.78
2023-03-12T17:32:15.403Z,100520.12
2023-03-12T17:35:19.572Z,100519.31
2023-03-12T17:38:22.519Z,100522.94
2023-03-12T17:41:27.176Z,100524.66
2023-03-12T17:44:34.794Z,100523.09
2023-03-12T17:47:37.520Z,100519.00
2023-03-12T17:50:41.395Z,100525.81
2023-03-12T17:53:44.049Z,100516.56
2023-03-12T17:56:46.820Z,100510.25
2023-03-12T17:59:52.671Z,100515.88
2023-03-12T18:02:55.565Z,100511.00
2023-03-12T18:05:59.011Z,100515.59
2023-03-12T18:09:01.607Z,100514.09
2023-03-12T18:12:05.603Z,100507.22
2023-03-12T18:15:11.019Z,100516.75
2023-03-12T18:18:14.113Z,100519.34
2023-03-12T18:21:16.875Z,100519.50
2023-03-12T18:24:19.851Z,100509.25
2023-03-12T18:27:22.392Z,100514.56
2023-03-12T18:30:25.364Z,100531.78
2023-03-12T18:33:28.077Z,100537.78
2023-03-12T18:36:30.984Z,100530.12
2023-03-12T18:39:35.276Z,100539.72
2023-03-12T18:42:38.298Z,100541.50
2023-03-12T18:45:42.969Z,100538.19
2023-03-12T18:48:46.251Z,100550.91
2023-03-12T18:51:53.469Z,100550.34
2023-03-12T18:54:56.371Z,100553.41
2023-03-12T18:57:59.038Z,100541.78
2023-03-12T19:01:02.050Z,100546.25
2023-03-12T19:04:05.027Z,100553.25
2023-03-12T19:07:08.936Z,100549.06
2023-03-12T19:10:12.460Z,100550.69
2023-03-12T19:13:15.499Z,100544.00
2023-03-12T19:16:21.897Z,100536.47
2023-03-12T19:19:24.899Z,100543.44
2023-03-12T19:22:27.415Z,100533.25
2023-03-12T19:25:32.087Z,100535.91
2023-03-12T19:28:35.084Z,100537.69
2023-03-12T19:31:38.328Z,100550.56
2023-03-12T19:34:41.221Z,100559.13
2023-03-12T19:37:44.054Z,100566.84
2023-03-12T19:40:51.000Z,100566.97
2023-03-12T19:43:54.123Z,100579.91
2023-03-12T19:46:56.796Z,100590.22
2023-03-12T19:49:59.988Z,100593.63
2023-03-12T19:53:02.841Z,100594.53
2023-03-12T19:56:06.297Z,100592.87
2023-03-12T19:59:09.273Z,100580.88
2023-03-12T20:02:13.467Z,100587.66
2023-03-12T20:05:16.594Z,100581.66
2023-03-12T20:08:20.990Z,100576.59
2023-03-12T20:11:23.923Z,100577.44
2023-03-12T20:14:26.967Z,100585.81
2023-03-12T20:17:29.908Z,100581.56
2023-03-12T20:20:32.950Z,100585.06
2023-03-12T20:23:36.055Z,100591.84
2023-03-12T20:26:39.546Z,100582.41
2023-03-12T20:29:43.595Z,100585.69
2023-03-12T20:32:46.406Z,100592.41
2023-03-12T20:35:50.522Z,100603.53
2023-03-12T20:38:53.308Z,100602.53
2023-03-12T20:41:56.637Z,100589.66
2023-03-12T20:44:59.231Z,100572.72
2023-03-12T20:48:02.354Z,100571.09
2023-03-12T20:51:05.375Z,100569.50
2023-03-12T20:54:09.290Z,100576.31
2023-03-12T20:57:11.927Z,100590.03
2023-03-12T21:00:17.582Z,100596.91
2023-03-12T21:03:20.599Z,100599.44
2023-03-12T21:06:23.628Z,100596.75
2023-03-12T21:09:26.490Z,100600.28
2023-03-12T21:12:29.542Z,100601.19
2023-03-12T21:15:32.065Z,100610.59
2023-03-12T21:18:35.569Z,100612.31
2023-03-12T21:21:38.424Z,100602.13
2023-03-12T21:24:41.218Z,100595.28
2023-03-12T21:27:50.605Z,100597.78
2023-03-12T21:30:55.287Z,100594.13
2023-03-12T21:33:58.159Z,100588.00
2023-03-12T21:37:01.121Z,100588.72
2023-03-12T21:40:03.955Z,100589.34
2023-03-12T21:43:06.880Z,100596.84
2023-03-12T21:46:12.379Z,100586.31
2023-03-12T21:49:17.937Z,100587.66
2023-03-12T21:52:20.576Z,100584.72
2023-03-12T21:55:23.533Z,100576.78
2023-03-12T21:58:27.444Z,100577.56
2023-03-12T22:01:30.332Z,100590.22
2023-03-12T22:04:33.374Z,100581.72
2023-03-12T22:07:36.538Z,100576.50
2023-03-12T22:10:43.604Z,100569.56
2023-03-12T22:13:48.036Z,100576.47
2023-03-12T22:16:50.947Z,100577.94
2023-03-12T22:19:53.691Z,100573.53
2023-03-12T22:22:56.528Z,100577.81
2023-03-12T22:26:04.459Z,100573.56
2023-03-12T22:29:08.097Z,100573.31
2023-03-12T22:32:10.773Z,100566.56
2023-03-12T22:35:13.682Z,100575.06
2023-03-12T22:38:16.302Z,100579.53
2023-03-12T22:41:27.808Z,100576.84
2023-03-12T22:44:30.460Z,100580.34
2023-03-12T22:47:33.214Z,100578.72
2023-03-12T22:50:36.702Z,100576.09
2023-03-12T22:53:39.926Z,100583.66
2023-03-12T22:56:42.482Z,100585.28
2023-03-12T22:59:47.953Z,100581.88
2023-03-12T23:02:51.226Z,100587.03
2023-03-12T23:05:54.369Z,100599.13
2023-03-12T23:08:57.679Z,100602.47
2023-03-12T23:12:00.519Z,100604.91
2023-03-12T23:15:03.203Z,100609.41
2023-03-12T23:18:05.975Z,100614.38
2023-03-12T23:21:11.210Z,100617.03
2023-03-12T23:24:14.324Z,100620.13
2023-03-12T23:27:17.162Z,100631.22
2023-03-12T23:30:20.257Z,100627.72
2023-03-12T23:33:23.147Z,100627.47
2023-03-12T23:36:26.305Z,100626.75
2023-03-12T23:39:30.522Z,100630.22
2023-03-12T23:42:33.547Z,100638.44
2023-03-12T23:45:36.551Z,100639.66
2023-03-12T23:48:40.510Z,100637.81
2023-03-12T23:51:43.079Z,100633.59
2023-03-12T23:54:45.886Z,100633.75
2023-03-12T23:57:48.508Z,100626.75
